KCHS/CHS METAR and TAF weather

Enter ICAO airport designator
Station Type Date Time Source
KCHS METAR 2018/06/25 01:56 UTC NOAA

KCHS 250156Z 21009KT 10SM FEW050 FEW250 28/24 A3003 RMK AO2 SLP168 CONS LTGICCC DSNT NW-NE CB DSNT NW-NE T02830244


Station Type Date Time Source
KCHS Decoded METAR 2018/06/25 01:56 UTC NOAA

CHARLESTON INT'L AIRPORT, SC, United States (KCHS) 32-54N 080-02W 13M
Jun 24, 2018 - 09:56 PM EDT / 2018.06.25 0156 UTC
Wind: from the SSW (210 degrees) at 10 MPH (9 KT):0
Visibility: 10 mile(s):0
Sky conditions: mostly clear
Weather: Cumulonimbus clouds, lightning observed
Temperature: 82.9 F (28.3 C)
Dew Point: 75.9 F (24.4 C)
Relative Humidity: 79%
Pressure (altimeter): 30.03 in. Hg (1016 hPa)
ob: KCHS 250156Z 21009KT 10SM FEW050 FEW250 28/24 A3003 RMK AO2 SLP168 CONS LTGICCC DSNT NW-NE CB DSNT NW-NE T02830244
cycle: 2

Station Type Date Time Source
KCHS TAF 2018/06/24 18:33 UTC NOAA

TAF KCHS 241728Z 2418/2518 24009KT P6SM SCT040
FM242000 20011G18KT P6SM SCT040
FM250000 20009KT P6SM FEW050 SCT150
FM251200 25006KT P6SM FEW150


Example: see airport list